Time;durP1;ratioP1;P1;durP2;ratioP2;P2;SDS_P1;SDS_P2;PMS_P1;PMS_P2;Temp;Humidity;BMP_temperature;BMP_pressure;BME280_temperature;BME280_humidity;BME280_pressure;Samples;Min_cycle;Max_cycle;Signal;HPM_P1;HPM_P2
2021/12/08 00:00:55;;;;;;;2.60;1.02;;;;;;;;;;4962832;28;20203;-91
2021/12/08 00:03:22;;;;;;;3.58;1.50;;;;;;;;;;4948130;29;20230;-90
2021/12/08 00:05:48;;;;;;;3.05;1.65;;;;;;;;;;4948222;29;20288;-91
2021/12/08 00:08:16;;;;;;;8.15;1.95;;;;;;;;;;4951394;29;20181;-90
2021/12/08 00:13:19;;;;;;;5.90;1.40;;;;;;;;;;4967166;28;20216;-91
2021/12/08 00:15:47;;;;;;;4.28;1.60;;;;;;;;;;4946420;29;20192;-90
2021/12/08 00:18:14;;;;;;;6.50;1.60;;;;;;;;;;4948674;29;20196;-90
2021/12/08 00:20:41;;;;;;;3.70;1.25;;;;;;;;;;4948599;29;20252;-91
2021/12/08 00:23:07;;;;;;;6.07;1.50;;;;;;;;;;4949487;28;20237;-89
2021/12/08 00:25:34;;;;;;;5.28;1.45;;;;;;;;;;4948641;29;20204;-91
2021/12/08 00:28:01;;;;;;;5.22;1.70;;;;;;;;;;4948213;29;20184;-91
2021/12/08 00:30:27;;;;;;;5.93;1.67;;;;;;;;;;4965605;28;20185;-91
2021/12/08 00:32:55;;;;;;;2.60;0.98;;;;;;;;;;4965778;29;20211;-92
2021/12/08 00:35:21;;;;;;;1.92;1.17;;;;;;;;;;4965875;28;20630;-90
2021/12/08 00:37:47;;;;;;;4.78;1.42;;;;;;;;;;4961602;29;20181;-91
2021/12/08 00:40:16;;;;;;;2.75;1.60;;;;;;;;;;4945023;29;20259;-90
2021/12/08 00:42:42;;;;;;;4.63;1.85;;;;;;;;;;4965318;29;20208;-90
2021/12/08 00:45:09;;;;;;;3.33;1.60;;;;;;;;;;4965336;29;20189;-91
2021/12/08 00:47:35;;;;;;;5.45;1.83;;;;;;;;;;4948664;28;20180;-89
2021/12/08 00:50:01;;;;;;;7.20;1.58;;;;;;;;;;4949143;29;20318;-89
2021/12/08 00:52:29;;;;;;;2.00;1.25;;;;;;;;;;4945974;29;20216;-91
2021/12/08 00:54:55;;;;;;;4.82;1.45;;;;;;;;;;4947655;29;20207;-89
2021/12/08 00:57:22;;;;;;;3.47;1.35;;;;;;;;;;4965580;28;20195;-91
2021/12/08 00:59:48;;;;;;;3.08;1.40;;;;;;;;;;4966059;29;20199;-92
2021/12/08 01:02:14;;;;;;;5.85;1.88;;;;;;;;;;4947704;28;20255;-92
2021/12/08 01:04:40;;;;;;;2.70;1.10;;;;;;;;;;4948828;29;20208;-90
2021/12/08 01:07:06;;;;;;;6.68;1.50;;;;;;;;;;4947897;29;20264;-90
2021/12/08 01:09:33;;;;;;;1.75;1.30;;;;;;;;;;4965198;28;20259;-89
2021/12/08 01:12:02;;;;;;;3.97;1.55;;;;;;;;;;4947216;29;20283;-90
2021/12/08 01:14:29;;;;;;;4.03;1.58;;;;;;;;;;4964404;28;20674;-89
2021/12/08 01:16:55;;;;;;;5.57;1.27;;;;;;;;;;4948456;29;20181;-89
2021/12/08 01:19:21;;;;;;;2.85;1.20;;;;;;;;;;4946629;29;20263;-90
2021/12/08 01:21:48;;;;;;;4.95;1.27;;;;;;;;;;4946554;29;20212;-90
2021/12/08 01:24:14;;;;;;;2.45;0.93;;;;;;;;;;4944391;29;20204;-90
2021/12/08 01:26:40;;;;;;;3.35;1.52;;;;;;;;;;4964917;28;20176;-89
2021/12/08 01:29:07;;;;;;;5.65;1.40;;;;;;;;;;4947617;29;20181;-90
2021/12/08 01:31:35;;;;;;;4.82;1.50;;;;;;;;;;4949029;29;20180;-90
2021/12/08 01:34:01;;;;;;;4.72;1.08;;;;;;;;;;4965431;28;20550;-89
2021/12/08 01:36:27;;;;;;;2.05;1.15;;;;;;;;;;4964538;28;20195;-89
2021/12/08 01:38:53;;;;;;;3.15;1.50;;;;;;;;;;4964067;28;20242;-89
2021/12/08 01:41:21;;;;;;;8.82;1.33;;;;;;;;;;4947346;28;20200;-90
2021/12/08 01:46:32;;;;;;;1.35;0.90;;;;;;;;;;4964583;29;20187;-90
2021/12/08 01:48:58;;;;;;;2.47;0.90;;;;;;;;;;4945321;29;20212;-89
2021/12/08 01:51:25;;;;;;;5.93;2.03;;;;;;;;;;4964063;29;20181;-91
2021/12/08 01:53:53;;;;;;;3.30;1.27;;;;;;;;;;4944475;29;20224;-93
2021/12/08 01:56:20;;;;;;;5.75;1.90;;;;;;;;;;4965278;28;20172;-88
2021/12/08 01:58:46;;;;;;;4.50;0.90;;;;;;;;;;4948708;29;20187;-91
2021/12/08 02:01:14;;;;;;;2.28;1.10;;;;;;;;;;4946939;29;20188;-89
2021/12/08 02:03:40;;;;;;;3.17;1.52;;;;;;;;;;4964515;28;20246;-89
2021/12/08 02:06:08;;;;;;;4.88;1.63;;;;;;;;;;4945589;29;20266;-91
2021/12/08 02:08:34;;;;;;;1.52;1.33;;;;;;;;;;4947682;28;20184;-89
2021/12/08 02:11:02;;;;;;;4.55;1.50;;;;;;;;;;4965630;29;20173;-88
2021/12/08 02:13:31;;;;;;;2.53;1.00;;;;;;;;;;4944780;29;20207;-91
2021/12/08 02:15:57;;;;;;;5.80;1.48;;;;;;;;;;4946344;29;20192;-92
2021/12/08 02:18:23;;;;;;;2.10;0.90;;;;;;;;;;4946120;29;20192;-89
2021/12/08 02:20:50;;;;;;;3.08;2.17;;;;;;;;;;4943452;29;20225;-89
2021/12/08 02:23:16;;;;;;;5.82;1.55;;;;;;;;;;4947161;28;20238;-91
2021/12/08 02:25:44;;;;;;;3.58;1.70;;;;;;;;;;4950550;29;20205;-90
2021/12/08 02:28:11;;;;;;;4.15;1.38;;;;;;;;;;4945429;29;20269;-92
2021/12/08 02:30:49;;;;;;;6.88;1.55;;;;;;;;;;4942936;29;20251;-88
2021/12/08 02:49:32;;;;;;;3.63;1.05;;;;;;;;;;4968285;29;20600;-89
2021/12/08 02:51:59;;;;;;;3.42;1.25;;;;;;;;;;4946934;29;20271;-89
2021/12/08 02:54:25;;;;;;;9.55;1.55;;;;;;;;;;4966616;29;20211;-90
2021/12/08 02:56:54;;;;;;;2.45;1.02;;;;;;;;;;4946780;29;20192;-88
2021/12/08 02:59:20;;;;;;;6.88;2.00;;;;;;;;;;4949670;29;20188;-92
2021/12/08 03:01:46;;;;;;;2.20;1.25;;;;;;;;;;4951191;29;20206;-89
2021/12/08 03:04:12;;;;;;;5.18;1.20;;;;;;;;;;4967179;28;20215;-92
2021/12/08 03:06:38;;;;;;;3.75;1.67;;;;;;;;;;4950178;29;20228;-90
2021/12/08 03:09:05;;;;;;;3.72;1.80;;;;;;;;;;4947451;29;20176;-90
2021/12/08 03:11:31;;;;;;;2.55;1.13;;;;;;;;;;4950811;29;20176;-91
2021/12/08 03:14:03;;;;;;;3.63;1.25;;;;;;;;;;4951150;29;20194;-90
2021/12/08 03:16:29;;;;;;;8.70;1.45;;;;;;;;;;4945333;29;20200;-89
2021/12/08 03:18:55;;;;;;;5.07;1.50;;;;;;;;;;4947129;29;20196;-91
2021/12/08 03:21:30;;;;;;;2.80;1.10;;;;;;;;;;4948897;29;20189;-90
2021/12/08 03:24:10;;;;;;;3.25;1.30;;;;;;;;;;4946573;29;20271;-92
2021/12/08 03:26:45;;;;;;;4.45;0.90;;;;;;;;;;4934598;29;20172;-90
2021/12/08 03:29:23;;;;;;;5.05;1.20;;;;;;;;;;4949230;28;20226;-88
2021/12/08 03:31:52;;;;;;;3.95;1.30;;;;;;;;;;4950562;29;20184;-92
2021/12/08 03:34:24;;;;;;;1.98;1.20;;;;;;;;;;4947964;29;20200;-91
2021/12/08 03:36:50;;;;;;;6.03;1.10;;;;;;;;;;4947551;29;20219;-90
2021/12/08 03:39:17;;;;;;;6.20;1.30;;;;;;;;;;4948554;29;20215;-90
2021/12/08 03:41:43;;;;;;;4.63;1.40;;;;;;;;;;4950609;29;20188;-89
2021/12/08 03:44:09;;;;;;;4.85;1.40;;;;;;;;;;4946839;28;20224;-87
2021/12/08 03:46:40;;;;;;;3.80;1.02;;;;;;;;;;4949750;29;20165;-89
2021/12/08 03:49:09;;;;;;;2.45;0.90;;;;;;;;;;4945965;29;20650;-93
2021/12/08 03:51:35;;;;;;;3.38;1.15;;;;;;;;;;4946903;29;20206;-89
2021/12/08 03:54:01;;;;;;;4.38;1.70;;;;;;;;;;4949192;29;20235;-91
2021/12/08 03:56:27;;;;;;;5.32;1.52;;;;;;;;;;4949400;29;20219;-89
2021/12/08 03:58:53;;;;;;;3.10;1.25;;;;;;;;;;4967009;29;20192;-91
2021/12/08 04:01:19;;;;;;;4.57;1.90;;;;;;;;;;4949057;29;20197;-89
2021/12/08 04:03:49;;;;;;;3.20;1.27;;;;;;;;;;4946114;29;20208;-90
2021/12/08 04:06:39;;;;;;;13.07;2.30;;;;;;;;;;4947457;29;20247;-93
2021/12/08 04:09:13;;;;;;;5.25;1.23;;;;;;;;;;4948577;29;20181;-94
2021/12/08 04:11:39;;;;;;;3.90;1.20;;;;;;;;;;4957526;28;20200;-92
2021/12/08 04:14:08;;;;;;;5.40;1.50;;;;;;;;;;4950058;29;20184;-90
2021/12/08 04:16:36;;;;;;;5.25;1.20;;;;;;;;;;4948783;29;20184;-92
2021/12/08 04:19:03;;;;;;;6.90;1.27;;;;;;;;;;4948320;29;20200;-90
2021/12/08 04:21:30;;;;;;;3.70;2.13;;;;;;;;;;4948895;29;20573;-90
2021/12/08 04:23:56;;;;;;;6.10;1.33;;;;;;;;;;4945360;29;20232;-91
2021/12/08 04:26:25;;;;;;;6.15;1.65;;;;;;;;;;4949468;29;20179;-91
2021/12/08 04:28:52;;;;;;;4.75;1.40;;;;;;;;;;4953157;29;20180;-90
2021/12/08 04:31:29;;;;;;;3.08;1.35;;;;;;;;;;4950977;29;20672;-94
2021/12/08 04:33:59;;;;;;;2.05;1.10;;;;;;;;;;4950669;29;20271;-90
2021/12/08 04:36:27;;;;;;;3.40;1.40;;;;;;;;;;4947702;29;20572;-92
2021/12/08 04:38:57;;;;;;;5.40;1.10;;;;;;;;;;4947687;29;20190;-92
2021/12/08 04:41:31;;;;;;;4.15;1.40;;;;;;;;;;4948539;28;20693;-93
2021/12/08 04:44:09;;;;;;;3.80;1.55;;;;;;;;;;4949510;29;20275;-89
2021/12/08 04:51:56;;;;;;;7.30;1.63;;;;;;;;;;4964843;28;20781;-91
2021/12/08 05:06:25;;;;;;;6.85;1.65;;;;;;;;;;4965128;29;20216;-94
2021/12/08 05:08:53;;;;;;;4.78;1.50;;;;;;;;;;4932877;29;20173;-91
2021/12/08 05:11:19;;;;;;;2.55;1.02;;;;;;;;;;4948403;28;20169;-93
2021/12/08 05:13:47;;;;;;;5.33;1.37;;;;;;;;;;4948711;29;20250;-90
2021/12/08 05:16:13;;;;;;;3.47;1.20;;;;;;;;;;4943883;29;20443;-90
2021/12/08 05:18:41;;;;;;;3.50;1.30;;;;;;;;;;4945916;29;20188;-88
2021/12/08 05:21:13;;;;;;;8.43;1.92;;;;;;;;;;4965226;28;20180;-92
2021/12/08 05:23:42;;;;;;;1.80;1.17;;;;;;;;;;4949572;28;20208;-89
2021/12/08 05:26:10;;;;;;;8.13;1.65;;;;;;;;;;4948485;28;20173;-89
2021/12/08 05:28:37;;;;;;;3.15;1.15;;;;;;;;;;4965695;29;20180;-90
2021/12/08 05:31:05;;;;;;;4.32;1.35;;;;;;;;;;4943323;29;20266;-88
2021/12/08 05:33:31;;;;;;;4.18;1.25;;;;;;;;;;4946126;29;20184;-89
2021/12/08 05:35:58;;;;;;;2.63;0.95;;;;;;;;;;4943986;29;20224;-94
2021/12/08 05:38:25;;;;;;;5.82;1.50;;;;;;;;;;4947266;28;20180;-90
2021/12/08 05:40:50;;;;;;;2.45;1.30;;;;;;;;;;4948719;29;20200;-89
2021/12/08 05:43:17;;;;;;;3.50;1.30;;;;;;;;;;4963758;28;20208;-88
2021/12/08 05:45:43;;;;;;;2.47;1.00;;;;;;;;;;4963437;29;20440;-89
2021/12/08 05:48:09;;;;;;;2.85;1.33;;;;;;;;;;4944120;29;20187;-89
2021/12/08 05:50:40;;;;;;;4.88;1.25;;;;;;;;;;4964708;28;20188;-90
2021/12/08 05:53:06;;;;;;;3.17;1.30;;;;;;;;;;4945035;29;20185;-89
2021/12/08 05:55:33;;;;;;;4.30;1.60;;;;;;;;;;4948062;29;20206;-91
2021/12/08 05:58:00;;;;;;;5.30;1.50;;;;;;;;;;4946055;29;20188;-89
2021/12/08 06:00:28;;;;;;;3.90;1.60;;;;;;;;;;4946368;29;20219;-90
2021/12/08 06:02:55;;;;;;;4.25;1.77;;;;;;;;;;4942591;29;20208;-90
2021/12/08 06:05:22;;;;;;;4.25;1.45;;;;;;;;;;4947138;28;20356;-91
2021/12/08 06:07:48;;;;;;;7.38;2.08;;;;;;;;;;4948899;29;20173;-95
2021/12/08 06:10:20;;;;;;;3.88;2.33;;;;;;;;;;4950670;29;20223;-90
2021/12/08 06:12:46;;;;;;;30.50;25.48;;;;;;;;;;4968450;29;20196;-90
2021/12/08 06:15:13;;;;;;;48.97;35.55;;;;;;;;;;4967897;28;20192;-89
2021/12/08 06:17:39;;;;;;;98.38;78.55;;;;;;;;;;4948933;29;20320;-90
2021/12/08 06:20:07;;;;;;;35.10;32.13;;;;;;;;;;4952454;29;20178;-90
2021/12/08 06:22:33;;;;;;;3.58;3.17;;;;;;;;;;4948490;29;20185;-89
2021/12/08 06:24:59;;;;;;;10.93;8.45;;;;;;;;;;4950561;29;20223;-90
2021/12/08 06:27:25;;;;;;;25.33;23.10;;;;;;;;;;4948626;29;20586;-91
2021/12/08 06:29:51;;;;;;;10.80;9.75;;;;;;;;;;4946970;29;20410;-88
2021/12/08 06:32:18;;;;;;;22.98;21.42;;;;;;;;;;4951164;29;20192;-93
2021/12/08 06:34:46;;;;;;;12.35;11.05;;;;;;;;;;4952082;29;20188;-93
2021/12/08 06:37:15;;;;;;;10.38;9.65;;;;;;;;;;4950095;29;20184;-91
2021/12/08 06:39:46;;;;;;;29.02;26.67;;;;;;;;;;4951271;29;20235;-90
2021/12/08 06:42:13;;;;;;;24.20;22.70;;;;;;;;;;4948528;29;20260;-91
2021/12/08 06:44:43;;;;;;;69.75;65.18;;;;;;;;;;4949528;29;20208;-90
2021/12/08 06:47:11;;;;;;;43.10;40.33;;;;;;;;;;4950233;28;20272;-92
2021/12/08 06:49:37;;;;;;;67.80;64.00;;;;;;;;;;4950934;29;20553;-89
2021/12/08 06:52:14;;;;;;;23.40;21.80;;;;;;;;;;4967139;28;20251;-89
2021/12/08 06:54:45;;;;;;;5.50;4.82;;;;;;;;;;4967425;28;20184;-90
2021/12/08 06:57:16;;;;;;;6.35;3.75;;;;;;;;;;4948692;29;20192;-93
2021/12/08 06:59:55;;;;;;;10.98;3.28;;;;;;;;;;4949522;29;20184;-90
2021/12/08 07:02:50;;;;;;;7.35;4.97;;;;;;;;;;4967742;29;20199;-90
2021/12/08 07:05:31;;;;;;;7.90;2.40;;;;;;;;;;4947901;28;20312;-92
2021/12/08 07:08:09;;;;;;;8.07;1.80;;;;;;;;;;4952275;29;20173;-91
2021/12/08 07:10:38;;;;;;;3.80;1.50;;;;;;;;;;4966689;29;20184;-88
2021/12/08 07:13:09;;;;;;;5.20;2.10;;;;;;;;;;4948689;29;20216;-90
2021/12/08 07:15:41;;;;;;;9.48;2.00;;;;;;;;;;4967324;28;20203;-91
2021/12/08 07:18:09;;;;;;;8.48;2.70;;;;;;;;;;4966459;28;20188;-93
2021/12/08 07:20:45;;;;;;;5.45;1.70;;;;;;;;;;4949916;29;20259;-92
2021/12/08 07:23:35;;;;;;;3.67;1.50;;;;;;;;;;4965881;28;20196;-96
2021/12/08 07:26:06;;;;;;;5.57;1.88;;;;;;;;;;4949601;29;20181;-94
2021/12/08 07:28:33;;;;;;;4.35;1.48;;;;;;;;;;4948759;29;20191;-90
2021/12/08 07:31:02;;;;;;;6.30;1.55;;;;;;;;;;4946917;29;20283;-91
2021/12/08 07:33:28;;;;;;;6.47;1.70;;;;;;;;;;4949068;29;20674;-93
2021/12/08 07:35:58;;;;;;;4.25;1.33;;;;;;;;;;4944103;29;20185;-91
2021/12/08 07:38:26;;;;;;;4.05;1.83;;;;;;;;;;4945749;28;20185;-89
2021/12/08 07:40:58;;;;;;;4.10;1.33;;;;;;;;;;4949389;29;20193;-91
2021/12/08 07:43:25;;;;;;;3.40;1.52;;;;;;;;;;4944970;29;20236;-89
2021/12/08 07:45:54;;;;;;;7.22;2.65;;;;;;;;;;4943553;29;20276;-87
2021/12/08 07:48:24;;;;;;;4.03;1.60;;;;;;;;;;4947634;29;20669;-88
2021/12/08 07:50:57;;;;;;;7.50;2.00;;;;;;;;;;4966242;29;20267;-87
2021/12/08 07:53:24;;;;;;;4.90;1.98;;;;;;;;;;4948303;28;20203;-87
2021/12/08 07:55:51;;;;;;;6.38;2.10;;;;;;;;;;4946731;29;20623;-87
2021/12/08 07:58:19;;;;;;;2.17;1.30;;;;;;;;;;4949951;29;20207;-88
2021/12/08 08:00:53;;;;;;;5.22;1.90;;;;;;;;;;4944835;29;20200;-88
2021/12/08 08:03:20;;;;;;;6.30;2.00;;;;;;;;;;4960342;28;20196;-85
2021/12/08 08:05:47;;;;;;;3.47;1.63;;;;;;;;;;4945879;29;20414;-91
2021/12/08 08:08:14;;;;;;;4.45;1.52;;;;;;;;;;4950002;28;20264;-93
2021/12/08 08:10:54;;;;;;;4.07;1.65;;;;;;;;;;4949198;29;20176;-90
2021/12/08 08:13:21;;;;;;;6.18;2.28;;;;;;;;;;4946894;29;20203;-93
2021/12/08 08:15:49;;;;;;;7.13;2.17;;;;;;;;;;4947406;29;20674;-91
2021/12/08 08:18:19;;;;;;;4.40;1.23;;;;;;;;;;4947863;29;20211;-92
2021/12/08 08:20:50;;;;;;;6.00;3.05;;;;;;;;;;4943896;29;20196;-93
2021/12/08 08:23:18;;;;;;;4.20;1.60;;;;;;;;;;4944756;28;20200;-94
2021/12/08 08:25:46;;;;;;;7.18;1.85;;;;;;;;;;4947042;29;20177;-89
2021/12/08 08:28:12;;;;;;;11.73;2.08;;;;;;;;;;4945918;29;20181;-87
2021/12/08 08:30:45;;;;;;;5.07;1.77;;;;;;;;;;4944591;29;20208;-89
2021/12/08 08:33:12;;;;;;;11.77;2.90;;;;;;;;;;4947287;29;20196;-87
2021/12/08 08:35:43;;;;;;;4.65;1.73;;;;;;;;;;4943963;29;20582;-86
2021/12/08 08:38:13;;;;;;;3.85;1.60;;;;;;;;;;4950251;28;20184;-90
2021/12/08 08:40:41;;;;;;;4.38;1.65;;;;;;;;;;4949097;29;20279;-90
2021/12/08 08:43:08;;;;;;;4.57;1.55;;;;;;;;;;4961812;28;20251;-87
2021/12/08 08:45:40;;;;;;;8.90;1.95;;;;;;;;;;4944187;29;20446;-87
2021/12/08 08:48:15;;;;;;;5.55;2.05;;;;;;;;;;4948337;29;20516;-85
2021/12/08 08:50:50;;;;;;;7.57;2.03;;;;;;;;;;4963554;28;20235;-90
2021/12/08 08:53:19;;;;;;;8.65;2.00;;;;;;;;;;4944729;28;20216;-94
2021/12/08 08:55:53;;;;;;;5.75;1.98;;;;;;;;;;4947483;29;20257;-89
2021/12/08 08:58:21;;;;;;;2.13;1.52;;;;;;;;;;4945455;29;20184;-87
2021/12/08 09:00:52;;;;;;;3.35;1.60;;;;;;;;;;4942037;29;20278;-87
2021/12/08 09:03:21;;;;;;;2.90;1.80;;;;;;;;;;4946408;29;20240;-89
2021/12/08 09:05:56;;;;;;;7.90;1.60;;;;;;;;;;4965133;28;20220;-85
2021/12/08 09:08:24;;;;;;;3.53;1.55;;;;;;;;;;4964146;29;20176;-84
2021/12/08 09:10:57;;;;;;;4.63;1.25;;;;;;;;;;4942409;29;20177;-86
2021/12/08 09:13:29;;;;;;;4.13;1.70;;;;;;;;;;4946049;29;20254;-88
2021/12/08 09:15:57;;;;;;;4.35;1.85;;;;;;;;;;4945086;29;20264;-94
2021/12/08 09:18:29;;;;;;;4.80;1.85;;;;;;;;;;4946798;29;20258;-96
2021/12/08 09:21:08;;;;;;;8.93;1.50;;;;;;;;;;4946608;29;20188;-86
2021/12/08 09:23:37;;;;;;;15.82;2.63;;;;;;;;;;4944803;29;20208;-88
2021/12/08 09:26:05;;;;;;;7.03;1.85;;;;;;;;;;4963345;29;20184;-87
2021/12/08 09:28:34;;;;;;;8.40;1.25;;;;;;;;;;4943981;29;20189;-90
2021/12/08 09:31:07;;;;;;;7.28;1.50;;;;;;;;;;4944583;29;20200;-85
2021/12/08 09:33:39;;;;;;;4.55;1.30;;;;;;;;;;4942820;29;20196;-84
2021/12/08 09:36:08;;;;;;;4.10;1.77;;;;;;;;;;4960887;28;20188;-86
2021/12/08 09:38:36;;;;;;;4.47;1.45;;;;;;;;;;4946736;29;20200;-86
2021/12/08 09:41:05;;;;;;;3.35;1.13;;;;;;;;;;4947196;29;20185;-84
2021/12/08 09:43:34;;;;;;;4.15;1.90;;;;;;;;;;4956017;28;20217;-86
2021/12/08 09:46:04;;;;;;;5.32;1.90;;;;;;;;;;4946409;29;20320;-86
2021/12/08 09:48:30;;;;;;;6.88;2.03;;;;;;;;;;4968796;29;20263;-86
2021/12/08 09:50:57;;;;;;;7.03;1.75;;;;;;;;;;4948781;29;20184;-86
2021/12/08 09:53:24;;;;;;;1.77;0.98;;;;;;;;;;4951444;28;20192;-87
2021/12/08 09:55:51;;;;;;;3.85;1.55;;;;;;;;;;4951738;29;20227;-87
2021/12/08 09:58:17;;;;;;;3.67;1.73;;;;;;;;;;4949586;29;20220;-86
2021/12/08 10:00:45;;;;;;;5.43;1.50;;;;;;;;;;4945238;29;20205;-88
2021/12/08 10:03:14;;;;;;;2.75;1.40;;;;;;;;;;4939632;29;20280;-87
2021/12/08 10:05:41;;;;;;;2.38;1.23;;;;;;;;;;4948120;29;20229;-86
2021/12/08 10:08:08;;;;;;;4.30;1.48;;;;;;;;;;4950828;28;20548;-88
2021/12/08 10:10:34;;;;;;;5.10;1.40;;;;;;;;;;4948470;29;20605;-89
2021/12/08 10:13:00;;;;;;;5.30;1.17;;;;;;;;;;4949814;29;20216;-88
2021/12/08 10:15:26;;;;;;;6.60;1.15;;;;;;;;;;4947619;29;20184;-90
2021/12/08 10:17:54;;;;;;;7.70;2.00;;;;;;;;;;4949735;29;20193;-87
2021/12/08 10:20:20;;;;;;;4.50;1.50;;;;;;;;;;4945284;28;20228;-92
2021/12/08 10:23:06;;;;;;;4.38;1.40;;;;;;;;;;4951426;29;20593;-88
2021/12/08 10:25:36;;;;;;;4.43;1.45;;;;;;;;;;4946717;29;20709;-87
2021/12/08 10:28:13;;;;;;;7.10;1.75;;;;;;;;;;4948087;29;20256;-86
2021/12/08 10:30:47;;;;;;;3.55;1.38;;;;;;;;;;4966051;28;20195;-89
2021/12/08 10:33:38;;;;;;;4.75;1.60;;;;;;;;;;4947880;29;20184;-89
2021/12/08 10:36:18;;;;;;;12.55;2.00;;;;;;;;;;4949778;29;20184;-88
2021/12/08 10:38:44;;;;;;;5.13;1.40;;;;;;;;;;4946019;29;20283;-91
2021/12/08 10:41:10;;;;;;;3.17;1.20;;;;;;;;;;4951006;28;20196;-86
2021/12/08 10:43:36;;;;;;;6.05;1.50;;;;;;;;;;4950942;29;20232;-89
2021/12/08 10:46:10;;;;;;;5.13;0.90;;;;;;;;;;4966734;28;20188;-88
2021/12/08 10:48:42;;;;;;;7.05;1.35;;;;;;;;;;4947633;29;20181;-90
2021/12/08 10:54:26;;;;;;;3.33;1.83;;;;;;;;;;4966424;28;20203;-91
2021/12/08 10:57:00;;;;;;;4.63;1.42;;;;;;;;;;4948674;29;20204;-90
2021/12/08 10:59:28;;;;;;;5.03;2.05;;;;;;;;;;4948393;28;20179;-91
2021/12/08 11:01:59;;;;;;;4.05;1.85;;;;;;;;;;4940826;29;20191;-89
2021/12/08 11:04:30;;;;;;;7.10;3.90;;;;;;;;;;4948603;29;20208;-89
2021/12/08 11:07:03;;;;;;;6.97;2.45;;;;;;;;;;4967063;29;20212;-88
2021/12/08 11:09:39;;;;;;;3.45;1.25;;;;;;;;;;4946008;29;20181;-89
2021/12/08 11:12:05;;;;;;;2.78;1.85;;;;;;;;;;4949311;29;20184;-90
2021/12/08 11:14:42;;;;;;;3.38;1.50;;;;;;;;;;4949024;29;20200;-91
2021/12/08 11:17:23;;;;;;;4.18;1.40;;;;;;;;;;4940368;28;20188;-90
2021/12/08 11:19:49;;;;;;;3.00;1.27;;;;;;;;;;4949319;29;20293;-89
2021/12/08 11:22:17;;;;;;;6.03;1.50;;;;;;;;;;4946038;29;20180;-85
2021/12/08 11:24:56;;;;;;;5.63;1.52;;;;;;;;;;4944541;29;20534;-92
2021/12/08 11:27:29;;;;;;;3.80;1.40;;;;;;;;;;4945068;29;20320;-90
2021/12/08 11:29:58;;;;;;;3.28;1.60;;;;;;;;;;4946370;29;20185;-93
2021/12/08 11:32:25;;;;;;;2.00;1.20;;;;;;;;;;4947894;28;20173;-94
2021/12/08 11:34:52;;;;;;;2.35;1.33;;;;;;;;;;4950181;29;20192;-92
2021/12/08 11:37:19;;;;;;;2.67;1.65;;;;;;;;;;4948180;29;20188;-93
2021/12/08 11:40:02;;;;;;;2.03;1.30;;;;;;;;;;4965688;28;20184;-90
2021/12/08 11:43:00;;;;;;;4.70;1.80;;;;;;;;;;4947991;29;20191;-91
2021/12/08 11:45:36;;;;;;;3.97;1.20;;;;;;;;;;4914948;29;20234;-91
2021/12/08 11:51:09;;;;;;;2.50;1.20;;;;;;;;;;4913624;29;20217;-91
2021/12/08 11:53:44;;;;;;;1.30;1.20;;;;;;;;;;4909488;29;20228;-89
2021/12/08 11:56:29;;;;;;;2.33;1.40;;;;;;;;;;4924819;29;20192;-90
2021/12/08 11:58:55;;;;;;;3.95;1.52;;;;;;;;;;4916345;29;20710;-86
2021/12/08 12:01:21;;;;;;;2.67;1.08;;;;;;;;;;4907297;29;20281;-88
2021/12/08 12:03:48;;;;;;;2.00;1.80;;;;;;;;;;4907403;29;20225;-86
2021/12/08 12:06:14;;;;;;;2.65;1.05;;;;;;;;;;4907531;29;20237;-85
2021/12/08 12:08:40;;;;;;;3.00;1.40;;;;;;;;;;4905338;29;20201;-87
2021/12/08 12:11:06;;;;;;;2.38;1.27;;;;;;;;;;4926562;29;20193;-86
2021/12/08 12:13:32;;;;;;;5.50;1.73;;;;;;;;;;4909118;29;20193;-85
2021/12/08 12:15:58;;;;;;;5.30;1.95;;;;;;;;;;4915428;29;20285;-85
2021/12/08 12:18:31;;;;;;;8.02;2.92;;;;;;;;;;4915881;29;20198;-86
2021/12/08 12:21:00;;;;;;;1.90;0.88;;;;;;;;;;4911833;29;20204;-86
2021/12/08 12:23:45;;;;;;;2.55;1.05;;;;;;;;;;4947861;29;20204;-84
2021/12/08 12:26:20;;;;;;;3.33;1.25;;;;;;;;;;4945333;28;20235;-86
2021/12/08 12:29:05;;;;;;;1.77;1.42;;;;;;;;;;4966526;29;20176;-86
2021/12/08 12:31:37;;;;;;;5.78;1.70;;;;;;;;;;4963671;29;20654;-85
2021/12/08 12:34:03;;;;;;;1.48;1.08;;;;;;;;;;4944052;29;20711;-85
2021/12/08 12:36:31;;;;;;;6.60;1.30;;;;;;;;;;4951627;28;20196;-85
2021/12/08 12:39:14;;;;;;;2.95;1.20;;;;;;;;;;4947083;29;20217;-87
2021/12/08 12:41:40;;;;;;;1.80;1.20;;;;;;;;;;4947789;29;20184;-87
2021/12/08 12:44:20;;;;;;;3.45;1.23;;;;;;;;;;4947853;29;20207;-87
2021/12/08 12:47:21;;;;;;;3.85;1.73;;;;;;;;;;4947882;29;20176;-85
2021/12/08 12:50:10;;;;;;;2.63;1.10;;;;;;;;;;4945848;29;20173;-86
2021/12/08 12:52:38;;;;;;;3.38;1.65;;;;;;;;;;4943391;29;20240;-87
2021/12/08 12:55:18;;;;;;;1.92;0.88;;;;;;;;;;4946229;29;20538;-88
2021/12/08 12:58:00;;;;;;;2.25;1.08;;;;;;;;;;4946988;29;20187;-90
2021/12/08 13:00:30;;;;;;;2.15;1.15;;;;;;;;;;4946459;29;20195;-91
2021/12/08 13:02:56;;;;;;;2.97;1.40;;;;;;;;;;4965881;29;20215;-89
2021/12/08 13:05:22;;;;;;;4.05;1.65;;;;;;;;;;4947384;28;20223;-90
2021/12/08 13:07:56;;;;;;;4.20;1.40;;;;;;;;;;4947255;29;20180;-90
2021/12/08 13:10:29;;;;;;;8.23;1.65;;;;;;;;;;4946218;29;20200;-89
2021/12/08 13:13:09;;;;;;;7.03;1.70;;;;;;;;;;4946881;29;20238;-89
2021/12/08 13:15:35;;;;;;;3.33;1.23;;;;;;;;;;4944236;29;20195;-92
2021/12/08 13:18:09;;;;;;;1.08;0.95;;;;;;;;;;4963529;28;20196;-86
2021/12/08 13:21:05;;;;;;;3.00;1.40;;;;;;;;;;4963031;28;20931;-85
2021/12/08 13:23:32;;;;;;;5.47;1.50;;;;;;;;;;4946027;28;20773;-86
2021/12/08 13:26:02;;;;;;;3.97;1.15;;;;;;;;;;4948881;29;20196;-86
2021/12/08 13:28:37;;;;;;;1.98;1.10;;;;;;;;;;4944325;29;20180;-85
2021/12/08 13:31:08;;;;;;;1.58;0.90;;;;;;;;;;4946259;29;20215;-88
2021/12/08 13:33:40;;;;;;;3.22;1.25;;;;;;;;;;4963288;29;20193;-89
2021/12/08 13:36:22;;;;;;;3.30;1.00;;;;;;;;;;4943178;29;20278;-87
2021/12/08 13:38:48;;;;;;;16.17;1.55;;;;;;;;;;4940202;29;20189;-86
2021/12/08 13:41:15;;;;;;;2.35;1.05;;;;;;;;;;4964374;29;20642;-88
2021/12/08 13:43:44;;;;;;;1.05;0.90;;;;;;;;;;4946849;29;20232;-87
2021/12/08 13:46:11;;;;;;;1.38;1.02;;;;;;;;;;4962250;28;20180;-86
2021/12/08 13:48:57;;;;;;;4.25;1.38;;;;;;;;;;4955100;28;20639;-85
2021/12/08 13:51:23;;;;;;;7.35;1.55;;;;;;;;;;4946674;29;20204;-88
2021/12/08 13:54:18;;;;;;;3.80;1.27;;;;;;;;;;4944934;29;20204;-86
2021/12/08 13:56:45;;;;;;;1.75;1.00;;;;;;;;;;4948303;28;20181;-86
2021/12/08 13:59:11;;;;;;;1.85;0.75;;;;;;;;;;4965101;28;20548;-85
2021/12/08 14:01:38;;;;;;;2.88;1.20;;;;;;;;;;4946892;29;20787;-86
2021/12/08 14:04:15;;;;;;;2.88;1.60;;;;;;;;;;4946461;29;20208;-86
2021/12/08 14:06:41;;;;;;;4.50;1.33;;;;;;;;;;4962920;28;20552;-85
2021/12/08 14:09:15;;;;;;;2.25;1.48;;;;;;;;;;4945949;29;20208;-86
2021/12/08 14:11:41;;;;;;;3.35;1.00;;;;;;;;;;4951074;29;20188;-86
2021/12/08 14:14:08;;;;;;;5.82;1.42;;;;;;;;;;4965143;29;20197;-87
2021/12/08 14:16:34;;;;;;;6.25;3.40;;;;;;;;;;4946866;29;20710;-87
2021/12/08 14:19:00;;;;;;;3.60;1.42;;;;;;;;;;4964412;28;20204;-86
2021/12/08 14:21:33;;;;;;;5.68;1.30;;;;;;;;;;4962746;29;20638;-86
2021/12/08 14:24:05;;;;;;;5.18;1.40;;;;;;;;;;4962896;28;20204;-87
2021/12/08 14:26:34;;;;;;;2.38;1.40;;;;;;;;;;4945727;28;21167;-88
2021/12/08 14:29:15;;;;;;;2.35;1.20;;;;;;;;;;4963501;28;20176;-87
2021/12/08 14:31:45;;;;;;;2.95;1.20;;;;;;;;;;4968492;29;20184;-86
2021/12/08 14:34:17;;;;;;;2.80;1.63;;;;;;;;;;4947968;29;20220;-86
2021/12/08 14:36:43;;;;;;;2.20;2.00;;;;;;;;;;4949539;29;20275;-89
2021/12/08 14:39:11;;;;;;;2.35;1.58;;;;;;;;;;4950091;29;20180;-87
2021/12/08 14:41:39;;;;;;;3.40;1.40;;;;;;;;;;4950454;28;20191;-88
2021/12/08 14:44:12;;;;;;;5.03;1.25;;;;;;;;;;4950486;29;20212;-88
2021/12/08 14:46:38;;;;;;;1.50;1.40;;;;;;;;;;4941775;29;20180;-88
2021/12/08 14:49:06;;;;;;;7.82;2.58;;;;;;;;;;4967532;28;20188;-89
2021/12/08 14:51:32;;;;;;;3.00;1.80;;;;;;;;;;4948466;29;20200;-89
2021/12/08 14:54:09;;;;;;;3.53;1.55;;;;;;;;;;4945232;29;20203;-86
2021/12/08 14:56:35;;;;;;;4.00;1.20;;;;;;;;;;4949029;29;20718;-89
2021/12/08 14:59:01;;;;;;;4.78;1.85;;;;;;;;;;4950358;29;20184;-90
2021/12/08 15:01:28;;;;;;;4.13;2.75;;;;;;;;;;4950511;29;20184;-89
2021/12/08 15:03:54;;;;;;;4.65;1.65;;;;;;;;;;4967914;28;20217;-89
2021/12/08 15:06:21;;;;;;;2.95;1.73;;;;;;;;;;4948653;29;20212;-89
2021/12/08 15:08:47;;;;;;;9.43;2.10;;;;;;;;;;4937548;29;20677;-89
2021/12/08 15:11:18;;;;;;;3.30;1.80;;;;;;;;;;4948760;28;20172;-90
2021/12/08 15:13:44;;;;;;;3.78;2.10;;;;;;;;;;4949723;29;20208;-89
2021/12/08 15:16:20;;;;;;;4.00;1.65;;;;;;;;;;4944287;29;20257;-89
2021/12/08 15:18:47;;;;;;;3.13;1.35;;;;;;;;;;4960735;28;20594;-89
2021/12/08 15:21:24;;;;;;;5.32;1.45;;;;;;;;;;4949173;29;20207;-89
2021/12/08 15:24:00;;;;;;;2.20;1.40;;;;;;;;;;4947951;29;20231;-89
2021/12/08 15:26:26;;;;;;;2.40;1.20;;;;;;;;;;4950211;28;20183;-89
2021/12/08 15:28:52;;;;;;;2.55;1.20;;;;;;;;;;4949330;29;20181;-88
2021/12/08 15:31:27;;;;;;;4.55;1.45;;;;;;;;;;4949927;29;20192;-89
2021/12/08 15:33:53;;;;;;;3.63;1.63;;;;;;;;;;4946796;29;20694;-89
2021/12/08 15:36:24;;;;;;;5.90;2.72;;;;;;;;;;4947196;29;20188;-87
2021/12/08 15:38:50;;;;;;;2.03;1.73;;;;;;;;;;4943933;29;20208;-90
2021/12/08 15:41:19;;;;;;;3.28;1.63;;;;;;;;;;4948994;28;20188;-88